Time;durP1;ratioP1;P1;durP2;ratioP2;P2;SDS_P1;SDS_P2;PMS_P1;PMS_P2;Temp;Humidity;BMP_temperature;BMP_pressure;BME280_temperature;BME280_humidity;BME280_pressure;Samples;Min_cycle;Max_cycle;Signal;HPM_P1;HPM_P2
2023/04/06 00:00:47;;;;;;;;;32.00;25.75;;;;;14.65;32.78;101299.38;5034096;28;45685;-69
2023/04/06 00:03:13;;;;;;;;;30.50;28.50;;;;;14.62;32.84;101294.88;5023542;28;46646;-70
2023/04/06 00:05:38;;;;;;;;;24.25;21.00;;;;;14.60;32.79;101285.88;5031999;28;45294;-71
2023/04/06 00:08:03;;;;;;;;;30.50;27.00;;;;;14.62;33.52;101285.88;5039171;28;45516;-72
2023/04/06 00:10:29;;;;;;;;;23.75;22.75;;;;;14.65;32.95;101286.84;5039081;28;45456;-70
2023/04/06 00:12:56;;;;;;;;;32.00;27.50;;;;;14.61;33.74;101286.75;5035607;28;46158;-71
2023/04/06 00:15:23;;;;;;;;;29.00;26.00;;;;;14.52;33.19;101280.31;5035798;28;45569;-73
2023/04/06 00:17:48;;;;;;;;;28.50;23.50;;;;;14.37;34.32;101274.66;5035747;28;45394;-71
2023/04/06 00:20:14;;;;;;;;;30.00;26.50;;;;;14.09;34.47;101219.44;5036012;28;45284;-72
2023/04/06 00:22:40;;;;;;;;;28.00;25.00;;;;;14.49;34.48;101293.69;5033233;28;46176;-72
2023/04/06 00:25:05;;;;;;;;;31.75;25.75;;;;;14.48;34.53;101296.34;5023192;28;45304;-71
2023/04/06 00:27:31;;;;;;;;;27.00;22.50;;;;;14.42;35.32;101286.38;5040629;28;45103;-70
2023/04/06 00:29:56;;;;;;;;;33.00;26.75;;;;;14.30;35.65;101288.81;5046021;28;45166;-70
2023/04/06 00:32:21;;;;;;;;;26.00;23.00;;;;;14.23;36.04;101278.84;5037475;28;45552;-70
2023/04/06 00:34:47;;;;;;;;;35.50;26.50;;;;;14.21;36.05;101272.53;5040160;28;45430;-70
2023/04/06 00:37:12;;;;;;;;;24.00;22.25;;;;;14.21;36.03;101277.91;5021776;28;45372;-72
2023/04/06 00:39:37;;;;;;;;;25.75;23.75;;;;;14.23;36.11;101278.84;5033563;28;45177;-71
2023/04/06 00:42:12;;;;;;;;;25.50;24.25;;;;;14.26;36.18;101276.22;5033382;28;50621;-70
2023/04/06 00:44:37;;;;;;;;;24.25;21.75;;;;;13.93;36.42;101215.56;5035119;28;45566;-71
2023/04/06 00:47:03;;;;;;;;;25.25;22.50;;;;;14.28;36.87;101271.75;5034801;28;45323;-70
2023/04/06 00:49:28;;;;;;;;;26.50;22.00;;;;;14.27;36.96;101269.94;5033651;28;45844;-70
2023/04/06 00:51:54;;;;;;;;;24.25;23.00;;;;;13.91;37.45;101211.91;5037502;28;46211;-72
2023/04/06 00:54:19;;;;;;;;;28.50;26.50;;;;;14.08;37.56;101241.81;5041824;28;45351;-72
2023/04/06 00:56:45;;;;;;;;;21.25;21.25;;;;;14.01;37.74;101240.78;5018533;28;45363;-73
2023/04/06 00:59:11;;;;;;;;;24.50;22.00;;;;;14.09;37.77;101254.34;5032122;28;45462;-70
2023/04/06 01:01:37;;;;;;;;;33.75;21.25;;;;;14.10;38.26;101248.13;5031658;28;46169;-68
2023/04/06 01:04:02;;;;;;;;;26.50;23.25;;;;;14.10;37.63;101242.75;5026195;28;45537;-72
2023/04/06 01:06:28;;;;;;;;;25.75;22.50;;;;;14.13;38.04;101241.03;5021300;28;45437;-72
2023/04/06 01:08:54;;;;;;;;;26.00;22.25;;;;;14.15;37.99;101236.56;5038450;28;45494;-73
2023/04/06 01:11:19;;;;;;;;;26.50;21.25;;;;;14.19;38.18;101245.63;5035494;28;46765;-71
2023/04/06 01:13:44;;;;;;;;;28.25;26.50;;;;;14.19;37.92;101235.78;5020510;28;45527;-70
2023/04/06 01:16:10;;;;;;;;;20.50;19.75;;;;;14.13;38.39;101224.00;5016573;28;45434;-72
2023/04/06 01:18:37;;;;;;;;;31.75;27.75;;;;;14.10;37.99;101222.16;5028354;28;45691;-71
2023/04/06 01:21:03;;;;;;;;;24.50;23.00;;;;;14.19;38.73;101242.94;5023157;28;47935;-69
2023/04/06 01:23:28;;;;;;;;;31.50;25.50;;;;;14.13;38.37;101242.81;5033998;28;45670;-70
2023/04/06 01:25:54;;;;;;;;;27.75;24.75;;;;;14.06;38.32;101235.53;5034721;28;45614;-70
2023/04/06 01:28:19;;;;;;;;;28.00;24.25;;;;;14.07;38.66;101234.63;5033051;28;45362;-72
2023/04/06 01:30:45;;;;;;;;;28.75;23.25;;;;;13.94;39.29;101217.34;5015521;28;45909;-70
2023/04/06 01:33:10;;;;;;;;;26.25;22.75;;;;;13.99;39.40;101235.38;5018993;28;45583;-72
2023/04/06 01:35:36;;;;;;;;;34.75;28.00;;;;;13.88;39.75;101218.13;5026060;28;45548;-72
2023/04/06 01:38:01;;;;;;;;;26.50;22.50;;;;;13.98;40.45;101235.34;5014415;28;45398;-71
2023/04/06 01:40:27;;;;;;;;;30.75;23.75;;;;;13.97;39.62;101230.84;5013632;28;46954;-69
2023/04/06 01:42:52;;;;;;;;;26.75;23.75;;;;;13.95;40.23;101225.44;5014674;28;45297;-69
2023/04/06 01:45:17;;;;;;;;;24.00;21.75;;;;;13.87;40.28;101207.38;5022480;28;45641;-71
2023/04/06 01:47:43;;;;;;;;;25.75;21.50;;;;;13.99;40.59;101226.41;5024366;28;45596;-68
2023/04/06 01:50:08;;;;;;;;;28.50;25.25;;;;;14.00;39.91;101220.16;5033897;28;45654;-70
2023/04/06 01:52:34;;;;;;;;;28.00;25.00;;;;;13.91;40.72;101204.78;5030686;28;45492;-71
2023/04/06 01:54:59;;;;;;;;;30.00;22.50;;;;;13.89;41.41;101217.28;5016105;28;45614;-69
2023/04/06 01:57:25;;;;;;;;;33.00;24.75;;;;;13.88;41.35;101207.41;5017820;28;45443;-70
2023/04/06 01:59:51;;;;;;;;;27.25;25.00;;;;;13.88;41.08;101211.88;5028040;28;45291;-71
2023/04/06 02:02:16;;;;;;;;;28.25;26.25;;;;;13.85;41.09;101207.34;5017747;28;45395;-71
2023/04/06 02:04:42;;;;;;;;;29.50;26.25;;;;;13.75;41.17;101198.19;5014012;28;45433;-72
2023/04/06 02:07:07;;;;;;;;;34.50;30.25;;;;;13.81;41.37;101211.75;5026009;28;45228;-70
2023/04/06 02:09:32;;;;;;;;;35.00;26.50;;;;;13.83;41.58;101209.97;5029617;28;46225;-69
2023/04/06 02:11:58;;;;;;;;;30.25;27.00;;;;;13.75;42.36;101203.53;5014415;28;45507;-71
2023/04/06 02:14:26;;;;;;;;;32.00;25.50;;;;;13.78;41.90;101210.78;5030105;28;45537;-70
2023/04/06 02:16:52;;;;;;;;;33.75;27.00;;;;;13.71;41.83;101199.00;5033058;28;45548;-69
2023/04/06 02:19:17;;;;;;;;;26.75;24.25;;;;;13.68;41.83;101204.31;5032580;28;46098;-72
2023/04/06 02:21:42;;;;;;;;;31.75;27.75;;;;;13.72;41.89;101208.84;5031360;28;46519;-72
2023/04/06 02:24:08;;;;;;;;;27.25;23.00;;;;;13.73;42.24;101201.72;5032283;28;45550;-70
2023/04/06 02:26:33;;;;;;;;;30.75;29.50;;;;;13.71;42.45;101201.69;5020411;28;45377;-69
2023/04/06 02:28:58;;;;;;;;;30.00;28.00;;;;;13.68;42.41;101189.94;5029120;28;45709;-66
2023/04/06 02:31:23;;;;;;;;;32.00;27.50;;;;;13.66;42.69;101191.72;5026736;28;51492;-70
2023/04/06 02:33:49;;;;;;;;;29.50;22.50;;;;;13.67;41.69;101190.84;5036834;28;45490;-68
2023/04/06 02:36:14;;;;;;;;;31.00;24.75;;;;;13.53;42.17;101161.94;5027981;28;45457;-69
2023/04/06 02:38:40;;;;;;;;;24.00;22.25;;;;;13.71;41.57;101182.88;5035277;28;45576;-70
2023/04/06 02:41:05;;;;;;;;;30.00;23.75;;;;;13.73;41.25;101178.44;5029060;28;45497;-71
2023/04/06 02:43:30;;;;;;;;;26.25;22.75;;;;;13.77;41.27;101176.72;5034236;28;45849;-69
2023/04/06 02:45:56;;;;;;;;;27.25;22.50;;;;;13.78;40.80;101170.50;5040217;28;45441;-69
2023/04/06 02:48:21;;;;;;;;;22.50;21.50;;;;;13.72;40.67;101155.16;5039854;28;46044;-69
2023/04/06 02:50:46;;;;;;;;;28.00;25.00;;;;;13.76;40.38;101153.41;5038732;28;45420;-68
2023/04/06 02:53:12;;;;;;;;;29.50;27.25;;;;;13.85;40.36;101158.09;5040663;28;45296;-69
2023/04/06 02:55:37;;;;;;;;;31.75;24.50;;;;;13.87;40.76;101162.59;5023978;28;45351;-70
2023/04/06 02:58:02;;;;;;;;;26.00;22.00;;;;;13.86;40.72;101158.13;5039324;28;47252;-71
2023/04/06 03:00:28;;;;;;;;;31.50;27.00;;;;;13.96;41.10;101183.38;5041662;28;45462;-70
2023/04/06 03:02:53;;;;;;;;;26.75;24.75;;;;;13.90;40.29;101189.53;5038688;28;45791;-69
2023/04/06 03:05:18;;;;;;;;;22.75;22.75;;;;;13.81;40.70;101192.94;5040719;28;45868;-70
2023/04/06 03:07:44;;;;;;;;;26.75;24.00;;;;;13.74;41.01;101192.78;5040273;28;46036;-70
2023/04/06 03:10:09;;;;;;;;;27.00;22.75;;;;;13.57;40.60;101177.22;5046928;28;45332;-68
2023/04/06 03:12:35;;;;;;;;;25.25;24.50;;;;;13.54;40.72;101189.69;5024077;28;45378;-67
2023/04/06 03:15:00;;;;;;;;;29.75;25.00;;;;;13.47;41.10;101202.06;5018899;28;45385;-70
2023/04/06 03:17:26;;;;;;;;;30.75;24.75;;;;;13.43;40.93;101184.09;5020225;28;46314;-70
2023/04/06 03:19:51;;;;;;;;;25.25;25.00;;;;;13.42;41.49;101174.22;5040973;28;45284;-69
2023/04/06 03:22:17;;;;;;;;;32.50;26.75;;;;;13.49;40.72;101173.47;5055277;28;45435;-68
2023/04/06 03:24:42;;;;;;;;;29.00;25.25;;;;;13.49;40.75;101165.41;5058492;28;45370;-68
2023/04/06 03:27:07;;;;;;;;;24.50;23.00;;;;;13.57;40.40;101170.94;5043770;28;45767;-71
2023/04/06 03:29:33;;;;;;;;;30.25;27.75;;;;;13.59;41.11;101171.88;5041269;28;45484;-68
2023/04/06 03:31:58;;;;;;;;;30.50;23.75;;;;;13.53;41.08;101177.13;5040842;28;45333;-71
2023/04/06 03:34:23;;;;;;;;;26.75;26.00;;;;;13.45;41.18;101177.88;5052874;28;45487;-71
2023/04/06 03:36:49;;;;;;;;;27.00;23.25;;;;;13.50;41.43;101182.44;5048005;28;45956;-71
2023/04/06 03:39:14;;;;;;;;;23.00;20.25;;;;;13.51;40.86;101181.56;5036691;28;45466;-72
2023/04/06 03:41:40;;;;;;;;;23.50;19.50;;;;;13.55;41.15;101175.41;5039984;28;45554;-71
2023/04/06 03:44:05;;;;;;;;;28.00;21.50;;;;;13.58;40.60;101173.66;5026740;28;45393;-70
2023/04/06 03:46:31;;;;;;;;;25.25;20.50;;;;;13.61;40.26;101162.06;5035387;28;45442;-68
2023/04/06 03:48:56;;;;;;;;;21.50;19.00;;;;;13.57;39.95;101152.16;5039265;28;45298;-71
2023/04/06 03:51:22;;;;;;;;;27.50;21.75;;;;;13.60;40.40;101162.97;5036688;28;45614;-69
2023/04/06 03:53:47;;;;;;;;;22.25;20.50;;;;;13.61;40.34;101163.00;5038013;28;45239;-71
2023/04/06 03:56:13;;;;;;;;;31.75;27.25;;;;;13.65;40.51;101172.03;5051154;28;45657;-70
2023/04/06 03:58:38;;;;;;;;;28.25;22.50;;;;;13.62;40.04;101164.78;5035946;28;45097;-70
2023/04/06 04:01:04;;;;;;;;;24.25;19.25;;;;;13.61;40.35;101164.75;5054501;28;44958;-71
2023/04/06 04:03:29;;;;;;;;;29.00;24.50;;;;;13.62;40.65;101162.09;5041360;28;44853;-69
2023/04/06 04:05:57;;;;;;;;;27.00;21.50;;;;;13.55;40.71;101143.19;5053307;28;45236;-69
2023/04/06 04:08:24;;;;;;;;;28.75;25.75;;;;;13.63;40.44;101171.97;5046877;28;45456;-70
2023/04/06 04:10:49;;;;;;;;;25.00;19.50;;;;;13.62;40.75;101166.59;5053542;28;45084;-69
2023/04/06 04:13:15;;;;;;;;;26.25;23.00;;;;;13.60;40.77;101169.22;5046314;28;45148;-70
2023/04/06 04:15:40;;;;;;;;;20.00;16.50;;;;;13.53;40.54;101161.00;5053611;28;45718;-70
2023/04/06 04:18:06;;;;;;;;;25.00;22.25;;;;;13.59;41.10;101167.41;5053134;28;45120;-69
2023/04/06 04:20:32;;;;;;;;;35.50;23.75;;;;;13.59;40.38;101166.50;5037672;28;45076;-68
2023/04/06 04:22:57;;;;;;;;;22.50;22.00;;;;;13.58;40.76;101173.66;5038827;28;45303;-70
2023/04/06 04:25:23;;;;;;;;;19.75;19.00;;;;;13.58;41.18;101167.41;5034883;28;46299;-69
2023/04/06 04:27:48;;;;;;;;;24.00;21.00;;;;;13.50;40.64;101145.75;5034954;28;45299;-68
2023/04/06 04:30:14;;;;;;;;;21.75;21.50;;;;;13.59;40.98;101153.97;5038225;28;45310;-68
2023/04/06 04:32:39;;;;;;;;;32.25;24.75;;;;;13.52;40.51;101138.63;5024191;28;45518;-67
2023/04/06 04:35:05;;;;;;;;;38.00;29.75;;;;;13.62;40.81;101151.38;5016228;28;45422;-70
2023/04/06 04:37:31;;;;;;;;;27.25;21.25;;;;;13.64;40.54;101152.31;5015878;28;44786;-68
2023/04/06 04:39:56;;;;;;;;;24.00;20.75;;;;;13.68;40.78;101160.41;5024212;28;45437;-70
2023/04/06 04:42:21;;;;;;;;;22.00;19.00;;;;;13.68;41.01;101152.34;5035096;28;45530;-69
2023/04/06 04:44:47;;;;;;;;;24.00;20.50;;;;;13.65;40.30;101155.91;5035000;28;45524;-69
2023/04/06 04:47:12;;;;;;;;;25.75;21.50;;;;;13.70;40.81;101154.22;5034784;28;45500;-71
2023/04/06 04:49:37;;;;;;;;;25.75;23.50;;;;;13.76;40.64;101157.03;5049594;28;45371;-70
2023/04/06 04:52:03;;;;;;;;;31.50;21.50;;;;;13.79;40.74;101158.84;5062665;28;45365;-70
2023/04/06 04:54:28;;;;;;;;;29.25;22.50;;;;;13.74;39.87;101148.06;5030740;28;45944;-69
2023/04/06 04:56:54;;;;;;;;;27.00;23.75;;;;;13.82;40.70;101164.28;5034032;28;45626;-68
2023/04/06 04:59:19;;;;;;;;;26.50;18.75;;;;;13.81;40.61;101167.88;5019919;28;45473;-70
2023/04/06 05:01:45;;;;;;;;;26.50;21.75;;;;;13.81;40.21;101167.88;5024479;28;45470;-71
2023/04/06 05:04:10;;;;;;;;;22.50;19.00;;;;;13.82;40.33;101172.34;5034131;28;46091;-69
2023/04/06 05:06:36;;;;;;;;;25.75;22.50;;;;;13.85;40.74;101174.19;5034087;28;45418;-72
2023/04/06 05:09:01;;;;;;;;;26.00;22.75;;;;;13.76;40.56;101162.41;5034167;28;45501;-68
2023/04/06 05:11:27;;;;;;;;;32.00;26.50;;;;;13.85;40.53;101180.47;5031512;28;45527;-70
2023/04/06 05:13:52;;;;;;;;;26.00;25.00;;;;;13.80;40.66;101182.16;5029469;28;45985;-69
2023/04/06 05:16:17;;;;;;;;;27.25;20.50;;;;;13.67;40.51;101169.38;5031664;28;45580;-72
2023/04/06 05:18:43;;;;;;;;;24.75;23.75;;;;;13.76;40.57;101191.94;5021555;28;45309;-73
2023/04/06 05:21:10;;;;;;;;;28.25;24.50;;;;;13.77;40.98;101188.38;5046338;28;45115;-66
2023/04/06 05:23:35;;;;;;;;;31.50;24.50;;;;;13.70;41.27;101177.50;5039993;28;45803;-70
2023/04/06 05:26:01;;;;;;;;;28.25;20.00;;;;;13.72;41.25;101189.16;5042599;28;45536;-67
2023/04/06 05:28:26;;;;;;;;;30.50;24.00;;;;;13.68;41.55;101185.50;5041039;28;45546;-66
2023/04/06 05:30:53;;;;;;;;;22.75;20.75;;;;;13.61;41.81;101191.59;5047447;28;45131;-68
2023/04/06 05:33:18;;;;;;;;;20.50;20.00;;;;;13.52;42.75;101197.69;5049012;28;45441;-72
2023/04/06 05:35:43;;;;;;;;;23.00;21.00;;;;;13.48;43.84;101184.16;5048583;28;45024;-69
2023/04/06 05:38:11;;;;;;;;;22.00;17.75;;;;;13.45;42.95;101182.34;5045514;28;45196;-69
2023/04/06 05:40:47;;;;;;;;;24.00;21.00;;;;;13.43;43.71;101184.09;5053216;28;44901;-69
2023/04/06 05:43:12;;;;;;;;;19.00;18.50;;;;;13.48;44.04;101190.47;5051015;28;47371;-69
2023/04/06 05:45:37;;;;;;;;;29.00;26.50;;;;;13.41;43.45;101192.13;5052230;28;44901;-68
2023/04/06 05:48:03;;;;;;;;;29.25;22.50;;;;;13.38;43.88;101197.41;5031331;28;45301;-67
2023/04/06 05:50:28;;;;;;;;;29.50;23.00;;;;;13.36;44.66;101196.44;5052308;28;45044;-69
2023/04/06 05:52:54;;;;;;;;;20.50;18.75;;;;;13.36;45.34;101198.22;5052055;28;45946;-71
2023/04/06 05:55:19;;;;;;;;;31.75;21.00;;;;;13.35;44.06;101186.59;5035364;28;45270;-69
2023/04/06 05:57:45;;;;;;;;;24.25;21.25;;;;;13.33;43.68;101177.63;5033837;28;45747;-71
2023/04/06 06:00:11;;;;;;;;;21.25;20.25;;;;;13.45;43.63;101201.13;5039912;28;45108;-69
2023/04/06 06:02:36;;;;;;;;;23.50;19.00;;;;;13.41;43.26;101194.78;5046304;28;45190;-71
2023/04/06 06:05:02;;;;;;;;;21.00;20.75;;;;;13.41;44.19;101189.44;5041514;28;45656;-71
2023/04/06 06:07:27;;;;;;;;;19.50;15.75;;;;;13.46;44.75;101202.91;5040496;28;45552;-71
2023/04/06 06:09:52;;;;;;;;;26.25;22.25;;;;;13.44;44.71;101193.94;5025465;28;45238;-67
2023/04/06 06:12:18;;;;;;;;;21.25;19.50;;;;;13.42;44.83;101201.94;5018664;28;45204;-70
2023/04/06 06:14:44;;;;;;;;;30.00;22.50;;;;;13.44;45.48;101202.88;5017079;28;45473;-70
2023/04/06 06:17:09;;;;;;;;;28.75;24.25;;;;;13.36;45.34;101180.34;5034588;28;45639;-68
2023/04/06 06:19:34;;;;;;;;;20.00;18.75;;;;;13.35;44.79;101186.59;5045950;28;45080;-71
2023/04/06 06:22:02;;;;;;;;;23.25;21.25;;;;;13.38;45.23;101199.16;5041206;28;45662;-70
2023/04/06 06:24:27;;;;;;;;;24.75;23.25;;;;;13.40;46.52;101198.34;5030107;28;45259;-70
2023/04/06 06:26:53;;;;;;;;;23.50;19.75;;;;;13.44;45.15;101193.94;5013566;28;45442;-70
2023/04/06 06:29:19;;;;;;;;;26.75;21.50;;;;;13.44;46.16;101193.94;5013596;28;45527;-69
2023/04/06 06:31:45;;;;;;;;;21.50;19.00;;;;;13.44;46.00;101192.16;5013400;28;45552;-70
2023/04/06 06:34:10;;;;;;;;;21.50;18.50;;;;;13.44;45.83;101185.88;5013686;28;45435;-69
2023/04/06 06:36:35;;;;;;;;;27.75;22.25;;;;;13.49;46.21;101189.56;5013783;28;45318;-70
2023/04/06 06:39:03;;;;;;;;;30.75;24.75;;;;;13.53;45.59;101185.16;5029551;28;45544;-70
2023/04/06 06:41:28;;;;;;;;;28.75;22.25;;;;;13.36;46.87;101158.88;5033307;28;45926;-72
2023/04/06 06:43:54;;;;;;;;;32.75;23.50;;;;;13.45;46.62;101175.19;5027441;28;45437;-71
2023/04/06 06:46:20;;;;;;;;;26.25;22.00;;;;;13.55;46.54;101180.75;5018694;28;45533;-72
2023/04/06 06:48:46;;;;;;;;;33.50;24.75;;;;;13.50;45.86;101172.59;5027319;28;45517;-73
2023/04/06 06:51:14;;;;;;;;;31.50;25.75;;;;;13.60;45.86;101189.81;5023820;28;45483;-69
2023/04/06 06:53:42;;;;;;;;;23.75;22.50;;;;;13.57;45.64;101185.28;5049415;28;45012;-72
2023/04/06 06:56:07;;;;;;;;;28.25;24.75;;;;;13.50;46.90;101174.41;5050427;28;45021;-71
2023/04/06 06:58:33;;;;;;;;;34.25;26.25;;;;;13.43;45.79;101159.94;5051265;28;45099;-72
2023/04/06 07:00:59;;;;;;;;;25.50;24.75;;;;;13.56;46.60;101179.88;5044152;28;46012;-74
2023/04/06 07:03:24;;;;;;;;;24.50;21.25;;;;;13.56;45.74;101172.75;5031432;28;45224;-71
2023/04/06 07:05:53;;;;;;;;;30.75;24.50;;;;;13.54;46.22;101184.31;5031449;28;45142;-70
2023/04/06 07:08:19;;;;;;;;;26.00;20.75;;;;;13.52;46.86;101178.91;5030724;28;45219;-70
2023/04/06 07:10:45;;;;;;;;;21.50;20.50;;;;;13.51;47.20;101185.13;5033678;28;45277;-70
2023/04/06 07:13:10;;;;;;;;;27.00;20.00;;;;;13.36;47.34;101156.19;5034161;28;44945;-71
2023/04/06 07:15:36;;;;;;;;;22.50;18.75;;;;;13.47;47.52;101169.84;5050638;28;45097;-71
2023/04/06 07:18:02;;;;;;;;;24.50;20.75;;;;;13.42;46.50;101168.84;5054272;28;45025;-70
2023/04/06 07:20:27;;;;;;;;;21.00;21.00;;;;;13.52;47.35;101181.59;5053960;28;46014;-71
2023/04/06 07:22:53;;;;;;;;;22.50;19.75;;;;;13.44;47.41;101169.78;5052825;28;45058;-72
2023/04/06 07:25:18;;;;;;;;;24.25;20.75;;;;;13.49;46.75;101180.63;5054336;28;45100;-70
2023/04/06 07:27:44;;;;;;;;;22.50;20.50;;;;;13.47;47.56;101174.31;5050657;28;45153;-70
2023/04/06 07:30:10;;;;;;;;;33.25;25.50;;;;;13.47;47.01;101177.91;5051364;28;47520;-72
2023/04/06 07:32:35;;;;;;;;;23.75;20.00;;;;;13.49;47.44;101172.56;5053214;28;45149;-71
2023/04/06 07:35:01;;;;;;;;;22.50;22.25;;;;;13.34;47.40;101155.25;5052999;28;45173;-72
2023/04/06 07:37:26;;;;;;;;;26.75;21.75;;;;;13.41;47.77;101178.69;5052292;28;44890;-70
2023/04/06 07:39:52;;;;;;;;;22.75;21.50;;;;;13.37;48.37;101189.31;5052036;28;45573;-70
2023/04/06 07:42:17;;;;;;;;;29.25;23.50;;;;;13.33;48.86;101182.06;5047377;28;48914;-70
2023/04/06 07:44:42;;;;;;;;;25.25;20.25;;;;;13.28;50.08;101181.91;5051982;28;44970;-71
2023/04/06 07:47:08;;;;;;;;;25.50;23.00;;;;;13.25;50.75;101181.88;5041274;28;45085;-71
2023/04/06 07:49:33;;;;;;;;;25.50;24.50;;;;;13.19;51.31;101176.34;5031841;28;45312;-70
2023/04/06 07:51:58;;;;;;;;;25.50;24.25;;;;;13.19;51.47;101181.72;5031355;28;44967;-71
2023/04/06 07:54:24;;;;;;;;;22.25;20.25;;;;;13.15;51.45;101182.50;5040789;28;45010;-70
2023/04/06 07:56:49;;;;;;;;;23.00;21.50;;;;;13.18;52.75;101179.91;5052482;28;44936;-71
2023/04/06 07:59:15;;;;;;;;;22.00;22.00;;;;;13.16;52.96;101178.97;5037231;28;45656;-70
2023/04/06 08:01:40;;;;;;;;;31.50;23.75;;;;;13.20;53.14;101183.50;5031924;28;45065;-71
2023/04/06 08:04:05;;;;;;;;;23.75;21.75;;;;;13.19;54.13;101179.03;5032610;28;44978;-68
2023/04/06 08:06:31;;;;;;;;;24.25;22.00;;;;;13.25;54.11;101172.03;5032631;28;45186;-71
2023/04/06 08:08:56;;;;;;;;;30.50;21.75;;;;;13.25;53.41;101182.78;5036647;28;45547;-69
2023/04/06 08:11:21;;;;;;;;;27.75;22.00;;;;;13.22;54.18;101177.31;5057132;28;44892;-70
2023/04/06 08:13:47;;;;;;;;;27.50;23.50;;;;;13.18;54.36;101182.59;5049994;28;45400;-69
2023/04/06 08:16:12;;;;;;;;;29.00;24.00;;;;;13.18;54.94;101182.59;5051466;28;45450;-70
2023/04/06 08:18:38;;;;;;;;;22.00;21.75;;;;;13.18;54.95;101178.16;5036606;28;46876;-69
2023/04/06 08:21:03;;;;;;;;;20.75;19.00;;;;;13.22;54.39;101181.81;5031528;28;44954;-70
2023/04/06 08:23:29;;;;;;;;;26.25;21.75;;;;;13.15;54.77;101179.81;5041051;28;46385;-72
2023/04/06 08:25:54;;;;;;;;;26.75;22.00;;;;;13.13;54.80;101179.78;5033562;28;45540;-71
2023/04/06 08:28:21;;;;;;;;;29.50;23.25;;;;;13.15;54.52;101177.16;5032430;28;45633;-68
2023/04/06 08:30:46;;;;;;;;;26.50;23.25;;;;;13.21;54.74;101188.03;5023288;28;45630;-70
2023/04/06 08:33:12;;;;;;;;;28.75;24.25;;;;;13.21;55.20;101174.59;5031088;28;45327;-68
2023/04/06 08:35:37;;;;;;;;;26.00;22.00;;;;;13.24;54.87;101178.25;5036869;28;45431;-70
2023/04/06 08:38:02;;;;;;;;;27.25;25.75;;;;;13.32;55.02;101190.97;5035440;28;46043;-71
2023/04/06 08:40:28;;;;;;;;;23.75;19.25;;;;;13.28;54.33;101174.78;5035414;28;45346;-69
2023/04/06 08:43:01;;;;;;;;;32.25;29.00;;;;;13.41;54.47;101188.50;5035321;28;45425;-68
2023/04/06 08:45:27;;;;;;;;;24.25;22.25;;;;;13.45;54.19;101196.66;5028256;28;45411;-68
2023/04/06 08:47:54;;;;;;;;;21.00;19.25;;;;;13.48;53.60;101194.91;5026712;28;45364;-71
2023/04/06 08:50:20;;;;;;;;;25.50;23.75;;;;;13.49;54.43;101205.69;5026812;28;45444;-68
2023/04/06 08:52:48;;;;;;;;;35.00;24.25;;;;;13.56;54.17;101215.69;5026569;28;45471;-70
2023/04/06 08:55:14;;;;;;;;;32.50;27.00;;;;;13.60;54.03;101212.19;5036162;28;45588;-70
2023/04/06 08:57:41;;;;;;;;;30.50;25.50;;;;;13.59;53.74;101212.16;5016935;28;45423;-70
2023/04/06 09:00:09;;;;;;;;;35.00;25.50;;;;;13.57;53.91;101216.59;5015803;28;45414;-71
2023/04/06 09:02:38;;;;;;;;;31.50;27.00;;;;;13.49;54.10;101216.41;5017590;28;45300;-70
2023/04/06 09:05:04;;;;;;;;;30.00;24.25;;;;;13.42;53.80;101218.06;5014981;28;45375;-69
2023/04/06 09:07:30;;;;;;;;;31.50;27.25;;;;;13.41;54.31;101205.53;5015842;28;46777;-69
2023/04/06 09:09:56;;;;;;;;;32.50;28.50;;;;;13.40;54.68;101201.03;5056021;28;45538;-69
2023/04/06 09:12:26;;;;;;;;;33.75;30.00;;;;;13.37;54.38;101183.94;5043855;28;45434;-70
2023/04/06 09:14:52;;;;;;;;;19.25;17.75;;;;;13.44;54.83;101208.25;5035312;28;45639;-72
2023/04/06 09:17:25;;;;;;;;;32.25;26.75;;;;;13.43;54.81;101218.97;5033261;28;47918;-71
2023/04/06 09:19:51;;;;;;;;;32.00;25.50;;;;;13.40;54.16;101217.13;5025487;28;45588;-70
2023/04/06 09:22:17;;;;;;;;;33.50;24.75;;;;;13.39;56.07;101219.78;5029230;28;45444;-68
2023/04/06 09:24:47;;;;;;;;;25.75;24.00;;;;;13.33;57.11;101215.19;5017180;28;45411;-69
2023/04/06 09:27:14;;;;;;;;;33.25;29.25;;;;;13.15;58.01;101207.59;5026579;28;45518;-68
2023/04/06 09:29:40;;;;;;;;;27.50;23.75;;;;;13.02;58.87;101206.38;5028609;28;45373;-70
2023/04/06 09:32:07;;;;;;;;;29.25;25.75;;;;;13.05;60.05;101225.25;5032839;28;45507;-71
2023/04/06 09:34:34;;;;;;;;;37.00;31.75;;;;;13.01;59.54;101220.66;5034173;28;45345;-69
2023/04/06 09:36:59;;;;;;;;;51.75;36.00;;;;;13.02;60.91;101216.22;5042925;28;45614;-68
2023/04/06 09:39:25;;;;;;;;;33.00;27.75;;;;;13.03;60.13;101224.31;5025963;28;45383;-71
2023/04/06 09:41:52;;;;;;;;;33.50;29.75;;;;;13.03;60.49;101218.00;5034483;28;45468;-71
2023/04/06 09:44:19;;;;;;;;;26.50;25.50;;;;;13.00;60.59;101218.88;5034744;28;45637;-69
2023/04/06 09:46:45;;;;;;;;;27.50;21.00;;;;;12.98;60.59;101211.63;5033830;28;46144;-70
2023/04/06 09:49:12;;;;;;;;;28.25;21.75;;;;;12.92;59.76;101199.00;5033879;28;45431;-70
2023/04/06 09:51:41;;;;;;;;;24.75;21.00;;;;;13.06;60.68;101210.94;5015867;28;45519;-69
2023/04/06 09:54:07;;;;;;;;;20.75;17.50;;;;;13.06;60.32;101218.97;5028278;28;45533;-72
2023/04/06 09:57:01;;;;;;;;;25.75;18.25;;;;;13.07;60.17;101220.81;5033817;28;45559;-70
2023/04/06 09:59:30;;;;;;;;;24.50;20.50;;;;;13.10;60.52;101230.72;5032298;28;45386;-68
2023/04/06 10:01:58;;;;;;;;;32.00;28.50;;;;;13.03;60.64;101221.63;5039865;28;45131;-73
2023/04/06 10:04:43;;;;;;;;;23.25;19.25;;;;;13.08;60.67;101236.03;5053176;28;44970;-70
2023/04/06 10:07:11;;;;;;;;;22.50;17.75;;;;;13.05;61.29;101224.31;5048182;28;45192;-68
2023/04/06 10:09:37;;;;;;;;;23.50;18.00;;;;;12.94;60.59;101216.03;5030005;28;45090;-70
2023/04/06 10:12:04;;;;;;;;;18.00;15.75;;;;;13.01;60.15;101241.22;5034210;28;45259;-70
2023/04/06 10:14:32;;;;;;;;;18.25;12.25;;;;;12.83;59.77;101205.03;5037891;28;45227;-71
2023/04/06 10:16:58;;;;;;;;;21.50;17.25;;;;;12.90;60.24;101228.47;5036356;28;45451;-71
2023/04/06 10:19:28;;;;;;;;;23.75;19.75;;;;;12.94;60.95;101225.84;5026024;28;45158;-70
2023/04/06 10:21:58;;;;;;;;;18.25;17.50;;;;;12.92;61.16;101207.03;5013737;28;45563;-71
2023/04/06 10:24:24;;;;;;;;;14.00;13.75;;;;;13.02;60.56;101225.16;5014501;28;45395;-71
2023/04/06 10:27:01;;;;;;;;;17.25;17.25;;;;;12.99;60.82;101230.44;5015600;28;45799;-70
2023/04/06 10:29:27;;;;;;;;;19.50;13.50;;;;;12.98;60.85;101234.00;5014131;28;45422;-70
2023/04/06 10:31:52;;;;;;;;;20.25;15.75;;;;;12.99;61.39;101222.41;5013256;28;45478;-70
2023/04/06 10:34:17;;;;;;;;;14.00;12.75;;;;;13.09;60.58;101224.44;5013414;28;45489;-70
2023/04/06 10:36:43;;;;;;;;;22.00;17.25;;;;;13.02;60.60;101210.84;5013449;28;45661;-70
2023/04/06 10:39:08;;;;;;;;;18.50;17.50;;;;;13.16;60.94;101235.31;5013604;28;45457;-69
2023/04/06 10:41:36;;;;;;;;;15.75;13.25;;;;;13.12;61.14;101228.97;5013200;28;45655;-70
2023/04/06 10:44:02;;;;;;;;;17.50;14.00;;;;;13.08;62.06;101240.47;5015679;28;45442;-69
2023/04/06 10:46:29;;;;;;;;;16.75;16.00;;;;;13.10;62.70;101236.09;5017088;28;46440;-70
2023/04/06 10:48:55;;;;;;;;;16.25;14.75;;;;;13.17;62.43;101232.66;5016741;28;45484;-69
2023/04/06 10:51:27;;;;;;;;;15.50;13.25;;;;;13.12;61.04;101228.97;5016367;28;45416;-70
2023/04/06 10:53:53;;;;;;;;;19.00;16.00;;;;;13.20;61.95;101245.22;5017334;28;45396;-71
2023/04/06 10:56:23;;;;;;;;;16.00;14.00;;;;;13.25;61.78;101240.91;5019901;28;46494;-68
2023/04/06 10:58:52;;;;;;;;;14.00;10.50;;;;;13.36;60.59;101234.00;5016745;28;45635;-71
2023/04/06 11:01:19;;;;;;;;;13.25;10.75;;;;;13.35;60.30;101213.44;5017173;28;45493;-71
2023/04/06 11:03:49;;;;;;;;;15.00;13.00;;;;;13.56;59.75;101228.19;5017977;28;45518;-70